Accueil
METAR-TAF:

METAR-TAF

Aéroports :

Aéroport international Roman-Tmetuchl

Koror, Babeldaob, Palaos

latitude: 07-22N, longitude: 134-32E, altitude: 54 m

Observation

Le bulletin a été fait il y a 28 minutes, à 10:50 UTC
Vent 4 kt de ouest
Température 27°C
Humidité 89%
Pression 1010 hPa
Visibilité: 24.1 km
Nuages épars à une hauteur de 1600 ft
Nuages fragmentés à une hauteur de 12000 ft
Nuages fragmentés à une hauteur de 30000 ft

METAR: PTRO 201050Z 27004KT 15SM SCT016 BKN120 BKN300 27/25 A2983

Heure: 20:18 (11:18 UTC)

Prévision

Le bulletin a été fait il y a 5 heures et 54 minutes, à 05:24 UTC
Prévision valable du 20 à 06 UTC au 21 à 06 UTC
Vent 7 kt de ouest/sud-ouest
Visibilité: 10 km
Nuages épars à une hauteur de 1700 ft
Nuages fragmentés à une hauteur de 12000 ft
Nuages fragmentés à une hauteur de 30000 ft
averses à proximité

TAF: PTRO 200524Z 2006/2106 25007KT P6SM VCSH SCT017 BKN120 BKN300

Observations et prévisions météorologiques de plus de 4000 aéroports (messages METAR et TAF).

Les stations disponibles sont représentées par des disques jaunes et rouges sur la carte.

Passer la souris dessus pour voir le nom de la station.

Cliquer dessus pour voir les observations et prévisions météorologiques.

Pour changer de carte: cliquez sur les boutons verts avec une croix noire pour zoomer, sur le bouton vert avec un tiret pour effectuer un zoom arrière, ou sur les flèches vertes pour les cartes adjacentes.


METAR-TAF: